sensor_id;sensor_type;location;lat;lon;timestamp;temperature;humidity
28087;DHT22;15392;48.912;8.380;2023-12-20T00:00:09;11.50;58.20
28087;DHT22;15392;48.912;8.380;2023-12-20T00:02:56;11.50;58.20
28087;DHT22;15392;48.912;8.380;2023-12-20T00:05:42;11.60;58.30
28087;DHT22;15392;48.912;8.380;2023-12-20T00:08:28;11.50;58.40
28087;DHT22;15392;48.912;8.380;2023-12-20T00:11:14;11.50;58.40
28087;DHT22;15392;48.912;8.380;2023-12-20T00:14:00;11.50;58.60
28087;DHT22;15392;48.912;8.380;2023-12-20T00:16:46;11.50;58.60
28087;DHT22;15392;48.912;8.380;2023-12-20T00:19:32;11.40;58.60
28087;DHT22;15392;48.912;8.380;2023-12-20T00:22:18;11.40;58.80
28087;DHT22;15392;48.912;8.380;2023-12-20T00:25:04;11.40;59.00
28087;DHT22;15392;48.912;8.380;2023-12-20T00:27:50;11.40;59.10
28087;DHT22;15392;48.912;8.380;2023-12-20T00:30:36;11.40;59.60
28087;DHT22;15392;48.912;8.380;2023-12-20T00:33:22;11.30;59.00
28087;DHT22;15392;48.912;8.380;2023-12-20T00:36:09;11.30;59.20
28087;DHT22;15392;48.912;8.380;2023-12-20T00:38:55;11.30;59.30
28087;DHT22;15392;48.912;8.380;2023-12-20T00:41:41;11.30;59.30
28087;DHT22;15392;48.912;8.380;2023-12-20T00:44:27;11.30;59.30
28087;DHT22;15392;48.912;8.380;2023-12-20T00:47:13;11.30;59.60
28087;DHT22;15392;48.912;8.380;2023-12-20T00:49:59;11.20;59.80
28087;DHT22;15392;48.912;8.380;2023-12-20T00:52:45;11.20;59.90
28087;DHT22;15392;48.912;8.380;2023-12-20T00:55:31;11.20;59.80
28087;DHT22;15392;48.912;8.380;2023-12-20T00:58:17;11.20;59.80
28087;DHT22;15392;48.912;8.380;2023-12-20T01:01:04;11.20;60.90
28087;DHT22;15392;48.912;8.380;2023-12-20T01:03:50;11.10;60.20
28087;DHT22;15392;48.912;8.380;2023-12-20T01:06:37;11.10;60.20
28087;DHT22;15392;48.912;8.380;2023-12-20T01:09:23;11.10;60.10
28087;DHT22;15392;48.912;8.380;2023-12-20T01:12:12;11.10;60.10
28087;DHT22;15392;48.912;8.380;2023-12-20T01:14:58;11.10;60.20
28087;DHT22;15392;48.912;8.380;2023-12-20T01:17:44;11.00;60.90
28087;DHT22;15392;48.912;8.380;2023-12-20T01:20:30;11.00;61.10
28087;DHT22;15392;48.912;8.380;2023-12-20T01:23:16;11.00;61.10
28087;DHT22;15392;48.912;8.380;2023-12-20T01:26:02;11.00;60.80
28087;DHT22;15392;48.912;8.380;2023-12-20T01:28:50;11.00;61.30
28087;DHT22;15392;48.912;8.380;2023-12-20T01:31:36;10.90;61.20
28087;DHT22;15392;48.912;8.380;2023-12-20T01:34:22;10.90;61.60
28087;DHT22;15392;48.912;8.380;2023-12-20T01:37:08;10.90;62.20
28087;DHT22;15392;48.912;8.380;2023-12-20T01:39:54;10.90;62.00
28087;DHT22;15392;48.912;8.380;2023-12-20T01:42:41;10.90;61.90
28087;DHT22;15392;48.912;8.380;2023-12-20T01:45:27;10.90;61.90
28087;DHT22;15392;48.912;8.380;2023-12-20T01:48:15;10.90;62.20
28087;DHT22;15392;48.912;8.380;2023-12-20T01:51:02;10.90;62.10
28087;DHT22;15392;48.912;8.380;2023-12-20T01:53:49;10.90;61.90
28087;DHT22;15392;48.912;8.380;2023-12-20T01:56:35;10.90;62.30
28087;DHT22;15392;48.912;8.380;2023-12-20T01:59:21;10.90;62.40
28087;DHT22;15392;48.912;8.380;2023-12-20T02:02:07;10.90;62.30
28087;DHT22;15392;48.912;8.380;2023-12-20T02:04:54;10.90;62.50
28087;DHT22;15392;48.912;8.380;2023-12-20T02:07:40;10.90;62.10
28087;DHT22;15392;48.912;8.380;2023-12-20T02:10:26;10.90;62.20
28087;DHT22;15392;48.912;8.380;2023-12-20T02:13:13;10.90;62.20
28087;DHT22;15392;48.912;8.380;2023-12-20T02:15:59;10.90;62.10
28087;DHT22;15392;48.912;8.380;2023-12-20T02:18:46;10.90;62.00
28087;DHT22;15392;48.912;8.380;2023-12-20T02:21:32;11.00;62.20
28087;DHT22;15392;48.912;8.380;2023-12-20T02:24:19;11.00;62.40
28087;DHT22;15392;48.912;8.380;2023-12-20T02:27:06;11.00;62.20
28087;DHT22;15392;48.912;8.380;2023-12-20T02:29:53;11.00;62.10
28087;DHT22;15392;48.912;8.380;2023-12-20T02:32:39;11.00;62.10
28087;DHT22;15392;48.912;8.380;2023-12-20T02:35:25;11.00;62.10
28087;DHT22;15392;48.912;8.380;2023-12-20T02:38:11;11.00;62.40
28087;DHT22;15392;48.912;8.380;2023-12-20T02:40:57;11.00;62.40
28087;DHT22;15392;48.912;8.380;2023-12-20T02:43:43;11.00;62.40
28087;DHT22;15392;48.912;8.380;2023-12-20T02:46:29;11.00;62.20
28087;DHT22;15392;48.912;8.380;2023-12-20T02:49:15;11.10;62.40
28087;DHT22;15392;48.912;8.380;2023-12-20T02:52:02;11.10;62.30
28087;DHT22;15392;48.912;8.380;2023-12-20T02:54:48;11.10;62.30
28087;DHT22;15392;48.912;8.380;2023-12-20T02:57:34;11.10;62.20
28087;DHT22;15392;48.912;8.380;2023-12-20T03:00:21;11.10;62.50
28087;DHT22;15392;48.912;8.380;2023-12-20T03:03:08;11.10;62.20
28087;DHT22;15392;48.912;8.380;2023-12-20T03:05:54;11.10;62.20
28087;DHT22;15392;48.912;8.380;2023-12-20T03:08:40;11.10;62.70
28087;DHT22;15392;48.912;8.380;2023-12-20T03:11:27;11.10;62.60
28087;DHT22;15392;48.912;8.380;2023-12-20T03:14:14;11.10;62.60
28087;DHT22;15392;48.912;8.380;2023-12-20T03:17:00;11.10;62.70
28087;DHT22;15392;48.912;8.380;2023-12-20T03:19:46;11.10;62.60
28087;DHT22;15392;48.912;8.380;2023-12-20T03:22:32;11.10;62.70
28087;DHT22;15392;48.912;8.380;2023-12-20T03:25:18;11.10;63.20
28087;DHT22;15392;48.912;8.380;2023-12-20T03:28:04;11.10;62.50
28087;DHT22;15392;48.912;8.380;2023-12-20T03:30:50;11.10;62.70
28087;DHT22;15392;48.912;8.380;2023-12-20T03:33:36;11.10;62.60
28087;DHT22;15392;48.912;8.380;2023-12-20T03:36:22;11.10;63.00
28087;DHT22;15392;48.912;8.380;2023-12-20T03:39:08;11.10;62.70
28087;DHT22;15392;48.912;8.380;2023-12-20T03:41:55;11.10;62.80
28087;DHT22;15392;48.912;8.380;2023-12-20T03:44:41;11.10;62.60
28087;DHT22;15392;48.912;8.380;2023-12-20T03:47:27;11.10;62.50
28087;DHT22;15392;48.912;8.380;2023-12-20T03:50:14;11.10;62.70
28087;DHT22;15392;48.912;8.380;2023-12-20T03:53:00;11.10;62.50
28087;DHT22;15392;48.912;8.380;2023-12-20T03:55:46;11.10;62.50
28087;DHT22;15392;48.912;8.380;2023-12-20T03:58:32;11.10;62.50
28087;DHT22;15392;48.912;8.380;2023-12-20T04:01:18;11.10;62.60
28087;DHT22;15392;48.912;8.380;2023-12-20T04:04:04;11.10;63.00
28087;DHT22;15392;48.912;8.380;2023-12-20T04:06:50;11.10;62.90
28087;DHT22;15392;48.912;8.380;2023-12-20T04:09:36;11.10;63.20
28087;DHT22;15392;48.912;8.380;2023-12-20T04:12:22;11.10;63.00
28087;DHT22;15392;48.912;8.380;2023-12-20T04:15:08;11.10;62.80
28087;DHT22;15392;48.912;8.380;2023-12-20T04:17:55;11.10;63.00
28087;DHT22;15392;48.912;8.380;2023-12-20T04:20:41;11.10;62.80
28087;DHT22;15392;48.912;8.380;2023-12-20T04:23:27;11.20;62.70
28087;DHT22;15392;48.912;8.380;2023-12-20T04:26:13;11.10;62.50
28087;DHT22;15392;48.912;8.380;2023-12-20T04:28:59;11.20;62.40
28087;DHT22;15392;48.912;8.380;2023-12-20T04:31:45;11.10;62.70
28087;DHT22;15392;48.912;8.380;2023-12-20T04:34:31;11.20;62.40
28087;DHT22;15392;48.912;8.380;2023-12-20T04:37:17;11.20;62.30
28087;DHT22;15392;48.912;8.380;2023-12-20T04:40:04;11.20;62.50
28087;DHT22;15392;48.912;8.380;2023-12-20T04:42:51;11.20;62.30
28087;DHT22;15392;48.912;8.380;2023-12-20T04:45:37;11.20;62.50
28087;DHT22;15392;48.912;8.380;2023-12-20T04:48:23;11.20;62.30
28087;DHT22;15392;48.912;8.380;2023-12-20T04:51:09;11.20;62.50
28087;DHT22;15392;48.912;8.380;2023-12-20T04:53:55;11.20;62.50
28087;DHT22;15392;48.912;8.380;2023-12-20T04:56:41;11.20;62.30
28087;DHT22;15392;48.912;8.380;2023-12-20T04:59:27;11.20;62.60
28087;DHT22;15392;48.912;8.380;2023-12-20T05:02:13;11.30;62.30
28087;DHT22;15392;48.912;8.380;2023-12-20T05:04:59;11.30;62.10
28087;DHT22;15392;48.912;8.380;2023-12-20T05:07:45;11.30;62.20
28087;DHT22;15392;48.912;8.380;2023-12-20T05:10:31;11.30;62.40
28087;DHT22;15392;48.912;8.380;2023-12-20T05:13:17;11.30;62.40
28087;DHT22;15392;48.912;8.380;2023-12-20T05:16:04;11.30;62.40
28087;DHT22;15392;48.912;8.380;2023-12-20T05:18:51;11.30;62.20
28087;DHT22;15392;48.912;8.380;2023-12-20T05:21:40;11.30;62.10
28087;DHT22;15392;48.912;8.380;2023-12-20T05:24:26;11.30;62.40
28087;DHT22;15392;48.912;8.380;2023-12-20T05:27:12;11.30;62.10
28087;DHT22;15392;48.912;8.380;2023-12-20T05:29:58;11.30;62.20
28087;DHT22;15392;48.912;8.380;2023-12-20T05:32:44;11.30;62.10
28087;DHT22;15392;48.912;8.380;2023-12-20T05:35:30;11.30;62.00
28087;DHT22;15392;48.912;8.380;2023-12-20T05:38:16;11.30;61.90
28087;DHT22;15392;48.912;8.380;2023-12-20T05:41:02;11.30;62.00
28087;DHT22;15392;48.912;8.380;2023-12-20T05:43:49;11.30;61.80
28087;DHT22;15392;48.912;8.380;2023-12-20T05:46:35;11.30;62.10
28087;DHT22;15392;48.912;8.380;2023-12-20T05:49:22;11.30;62.10
28087;DHT22;15392;48.912;8.380;2023-12-20T05:52:08;11.30;62.10
28087;DHT22;15392;48.912;8.380;2023-12-20T05:54:54;11.30;61.90
28087;DHT22;15392;48.912;8.380;2023-12-20T05:57:41;11.30;61.90
28087;DHT22;15392;48.912;8.380;2023-12-20T06:00:29;11.30;61.80
28087;DHT22;15392;48.912;8.380;2023-12-20T06:03:15;11.30;61.60
28087;DHT22;15392;48.912;8.380;2023-12-20T06:06:08;11.30;61.70
28087;DHT22;15392;48.912;8.380;2023-12-20T06:08:54;11.30;61.60
28087;DHT22;15392;48.912;8.380;2023-12-20T06:11:40;11.30;61.80
28087;DHT22;15392;48.912;8.380;2023-12-20T06:14:26;11.30;61.90
28087;DHT22;15392;48.912;8.380;2023-12-20T06:17:12;11.30;61.40
28087;DHT22;15392;48.912;8.380;2023-12-20T06:19:58;11.30;61.50
28087;DHT22;15392;48.912;8.380;2023-12-20T06:22:45;11.30;61.60
28087;DHT22;15392;48.912;8.380;2023-12-20T06:25:31;11.40;61.50
28087;DHT22;15392;48.912;8.380;2023-12-20T06:28:17;11.30;61.50
28087;DHT22;15392;48.912;8.380;2023-12-20T06:31:03;11.40;61.40
28087;DHT22;15392;48.912;8.380;2023-12-20T06:33:49;11.40;61.40
28087;DHT22;15392;48.912;8.380;2023-12-20T06:36:43;11.40;61.40
28087;DHT22;15392;48.912;8.380;2023-12-20T06:39:29;11.40;61.30
28087;DHT22;15392;48.912;8.380;2023-12-20T06:42:16;11.40;61.30
28087;DHT22;15392;48.912;8.380;2023-12-20T06:45:02;11.40;61.50
28087;DHT22;15392;48.912;8.380;2023-12-20T06:47:49;11.40;61.40
28087;DHT22;15392;48.912;8.380;2023-12-20T06:50:35;11.40;61.10
28087;DHT22;15392;48.912;8.380;2023-12-20T06:53:25;11.40;61.10
28087;DHT22;15392;48.912;8.380;2023-12-20T06:56:11;11.40;61.80
28087;DHT22;15392;48.912;8.380;2023-12-20T06:59:00;11.40;60.90
28087;DHT22;15392;48.912;8.380;2023-12-20T07:01:49;11.40;60.70
28087;DHT22;15392;48.912;8.380;2023-12-20T07:04:39;11.40;60.90
28087;DHT22;15392;48.912;8.380;2023-12-20T07:07:26;11.40;60.90
28087;DHT22;15392;48.912;8.380;2023-12-20T07:10:12;11.40;60.90
28087;DHT22;15392;48.912;8.380;2023-12-20T07:12:59;11.40;60.70
28087;DHT22;15392;48.912;8.380;2023-12-20T07:15:45;11.40;60.80
28087;DHT22;15392;48.912;8.380;2023-12-20T07:18:31;11.40;60.80
28087;DHT22;15392;48.912;8.380;2023-12-20T07:21:17;11.40;60.90
28087;DHT22;15392;48.912;8.380;2023-12-20T07:24:03;11.40;60.70
28087;DHT22;15392;48.912;8.380;2023-12-20T07:26:49;11.50;60.60
28087;DHT22;15392;48.912;8.380;2023-12-20T07:29:35;11.50;60.80
28087;DHT22;15392;48.912;8.380;2023-12-20T07:32:21;11.50;60.60
28087;DHT22;15392;48.912;8.380;2023-12-20T07:35:08;11.50;60.50
28087;DHT22;15392;48.912;8.380;2023-12-20T07:37:54;11.50;60.40
28087;DHT22;15392;48.912;8.380;2023-12-20T07:40:40;11.50;60.30
28087;DHT22;15392;48.912;8.380;2023-12-20T07:43:26;11.40;60.10
28087;DHT22;15392;48.912;8.380;2023-12-20T07:46:12;11.40;60.10
28087;DHT22;15392;48.912;8.380;2023-12-20T07:48:58;11.40;60.10
28087;DHT22;15392;48.912;8.380;2023-12-20T07:51:44;11.30;60.10
28087;DHT22;15392;48.912;8.380;2023-12-20T07:54:30;11.30;60.10
28087;DHT22;15392;48.912;8.380;2023-12-20T07:57:16;11.30;60.20
28087;DHT22;15392;48.912;8.380;2023-12-20T08:00:02;11.30;60.10
28087;DHT22;15392;48.912;8.380;2023-12-20T08:02:49;11.30;60.10
28087;DHT22;15392;48.912;8.380;2023-12-20T08:05:35;11.20;60.00
28087;DHT22;15392;48.912;8.380;2023-12-20T08:08:21;11.20;60.00
28087;DHT22;15392;48.912;8.380;2023-12-20T08:11:07;11.20;59.90
28087;DHT22;15392;48.912;8.380;2023-12-20T08:13:53;11.10;59.90
28087;DHT22;15392;48.912;8.380;2023-12-20T08:16:40;11.20;59.90
28087;DHT22;15392;48.912;8.380;2023-12-20T08:19:26;11.10;59.80
28087;DHT22;15392;48.912;8.380;2023-12-20T08:22:12;11.10;59.80
28087;DHT22;15392;48.912;8.380;2023-12-20T08:24:58;11.10;59.80
28087;DHT22;15392;48.912;8.380;2023-12-20T08:27:44;11.10;59.80
28087;DHT22;15392;48.912;8.380;2023-12-20T08:30:30;11.10;59.70
28087;DHT22;15392;48.912;8.380;2023-12-20T08:33:16;11.10;59.70
28087;DHT22;15392;48.912;8.380;2023-12-20T08:36:03;11.00;60.20
28087;DHT22;15392;48.912;8.380;2023-12-20T08:38:51;11.00;59.50
28087;DHT22;15392;48.912;8.380;2023-12-20T08:41:37;11.00;59.60
28087;DHT22;15392;48.912;8.380;2023-12-20T08:44:23;11.00;59.60
28087;DHT22;15392;48.912;8.380;2023-12-20T08:47:09;11.00;59.50
28087;DHT22;15392;48.912;8.380;2023-12-20T08:49:58;11.00;59.40
28087;DHT22;15392;48.912;8.380;2023-12-20T08:52:45;11.00;59.30
28087;DHT22;15392;48.912;8.380;2023-12-20T08:55:31;10.90;59.30
28087;DHT22;15392;48.912;8.380;2023-12-20T08:58:18;11.00;59.30
28087;DHT22;15392;48.912;8.380;2023-12-20T09:01:04;10.90;59.30
28087;DHT22;15392;48.912;8.380;2023-12-20T09:03:50;10.90;60.00
28087;DHT22;15392;48.912;8.380;2023-12-20T09:06:36;11.00;59.70
28087;DHT22;15392;48.912;8.380;2023-12-20T09:09:22;11.00;59.90
28087;DHT22;15392;48.912;8.380;2023-12-20T09:12:08;11.20;59.90
28087;DHT22;15392;48.912;8.380;2023-12-20T09:14:54;11.20;59.60
28087;DHT22;15392;48.912;8.380;2023-12-20T09:17:40;11.30;59.50
28087;DHT22;15392;48.912;8.380;2023-12-20T09:20:30;11.30;59.30
28087;DHT22;15392;48.912;8.380;2023-12-20T09:23:17;11.30;59.20
28087;DHT22;15392;48.912;8.380;2023-12-20T09:26:04;11.30;59.10
28087;DHT22;15392;48.912;8.380;2023-12-20T09:28:50;11.40;59.20
28087;DHT22;15392;48.912;8.380;2023-12-20T09:31:36;11.40;59.00
28087;DHT22;15392;48.912;8.380;2023-12-20T09:34:22;11.50;59.10
28087;DHT22;15392;48.912;8.380;2023-12-20T09:37:09;11.50;59.00
28087;DHT22;15392;48.912;8.380;2023-12-20T09:39:55;11.50;59.10
28087;DHT22;15392;48.912;8.380;2023-12-20T09:43:03;11.60;59.20
28087;DHT22;15392;48.912;8.380;2023-12-20T09:45:53;11.60;58.90
28087;DHT22;15392;48.912;8.380;2023-12-20T09:48:43;11.60;58.70
28087;DHT22;15392;48.912;8.380;2023-12-20T09:51:30;11.60;58.50
28087;DHT22;15392;48.912;8.380;2023-12-20T09:54:18;11.70;58.40
28087;DHT22;15392;48.912;8.380;2023-12-20T09:57:04;11.70;58.40
28087;DHT22;15392;48.912;8.380;2023-12-20T09:59:50;11.70;58.30
28087;DHT22;15392;48.912;8.380;2023-12-20T10:02:38;11.70;58.20
28087;DHT22;15392;48.912;8.380;2023-12-20T10:05:44;11.70;58.30
28087;DHT22;15392;48.912;8.380;2023-12-20T10:08:30;11.70;58.40
28087;DHT22;15392;48.912;8.380;2023-12-20T10:11:18;11.70;58.50
28087;DHT22;15392;48.912;8.380;2023-12-20T10:14:06;11.70;58.40
28087;DHT22;15392;48.912;8.380;2023-12-20T10:16:52;11.70;58.40
28087;DHT22;15392;48.912;8.380;2023-12-20T10:19:39;11.70;58.40
28087;DHT22;15392;48.912;8.380;2023-12-20T10:22:26;11.70;58.50
28087;DHT22;15392;48.912;8.380;2023-12-20T10:25:14;11.70;58.40
28087;DHT22;15392;48.912;8.380;2023-12-20T10:28:11;11.70;58.40
28087;DHT22;15392;48.912;8.380;2023-12-20T10:31:04;11.70;58.10
28087;DHT22;15392;48.912;8.380;2023-12-20T10:33:50;11.70;58.30
28087;DHT22;15392;48.912;8.380;2023-12-20T10:36:36;11.70;58.30
28087;DHT22;15392;48.912;8.380;2023-12-20T10:39:23;11.70;58.40
28087;DHT22;15392;48.912;8.380;2023-12-20T10:42:11;11.70;58.40
28087;DHT22;15392;48.912;8.380;2023-12-20T10:44:59;11.70;58.40
28087;DHT22;15392;48.912;8.380;2023-12-20T10:47:50;11.70;58.20
28087;DHT22;15392;48.912;8.380;2023-12-20T10:50:36;11.70;58.00
28087;DHT22;15392;48.912;8.380;2023-12-20T10:53:27;11.80;58.00
28087;DHT22;15392;48.912;8.380;2023-12-20T10:56:19;11.70;57.90
28087;DHT22;15392;48.912;8.380;2023-12-20T10:59:06;11.80;58.10
28087;DHT22;15392;48.912;8.380;2023-12-20T11:01:56;11.70;58.20
28087;DHT22;15392;48.912;8.380;2023-12-20T11:07:47;11.80;57.80
28087;DHT22;15392;48.912;8.380;2023-12-20T11:11:03;11.80;57.90
28087;DHT22;15392;48.912;8.380;2023-12-20T11:14:03;11.80;58.00
28087;DHT22;15392;48.912;8.380;2023-12-20T11:17:08;11.80;57.70
28087;DHT22;15392;48.912;8.380;2023-12-20T11:22:53;11.80;57.70
28087;DHT22;15392;48.912;8.380;2023-12-20T11:25:48;11.80;57.80
28087;DHT22;15392;48.912;8.380;2023-12-20T11:28:35;11.90;58.00
28087;DHT22;15392;48.912;8.380;2023-12-20T11:31:21;11.90;57.90
28087;DHT22;15392;48.912;8.380;2023-12-20T11:34:17;11.90;57.90
28087;DHT22;15392;48.912;8.380;2023-12-20T11:37:03;11.90;57.60
28087;DHT22;15392;48.912;8.380;2023-12-20T11:40:00;11.90;57.20
28087;DHT22;15392;48.912;8.380;2023-12-20T11:42:51;12.00;57.30
28087;DHT22;15392;48.912;8.380;2023-12-20T11:45:49;12.00;57.20
28087;DHT22;15392;48.912;8.380;2023-12-20T11:48:38;12.00;57.50
28087;DHT22;15392;48.912;8.380;2023-12-20T11:51:25;12.00;57.10
28087;DHT22;15392;48.912;8.380;2023-12-20T11:54:11;11.90;57.20
28087;DHT22;15392;48.912;8.380;2023-12-20T11:56:57;12.00;57.10
28087;DHT22;15392;48.912;8.380;2023-12-20T11:59:43;11.90;57.50
28087;DHT22;15392;48.912;8.380;2023-12-20T12:02:30;12.00;57.60
28087;DHT22;15392;48.912;8.380;2023-12-20T12:05:16;11.90;57.40
28087;DHT22;15392;48.912;8.380;2023-12-20T12:08:02;12.00;57.40
28087;DHT22;15392;48.912;8.380;2023-12-20T12:10:49;12.00;57.30
28087;DHT22;15392;48.912;8.380;2023-12-20T12:13:35;12.00;56.50
28087;DHT22;15392;48.912;8.380;2023-12-20T12:16:21;11.90;56.60
28087;DHT22;15392;48.912;8.380;2023-12-20T12:19:07;12.00;56.90
28087;DHT22;15392;48.912;8.380;2023-12-20T12:22:13;12.00;56.60
28087;DHT22;15392;48.912;8.380;2023-12-20T12:25:10;12.00;56.70
28087;DHT22;15392;48.912;8.380;2023-12-20T12:28:01;12.00;56.90
28087;DHT22;15392;48.912;8.380;2023-12-20T12:30:58;12.00;57.20
28087;DHT22;15392;48.912;8.380;2023-12-20T12:33:44;12.00;56.70
28087;DHT22;15392;48.912;8.380;2023-12-20T12:36:32;12.00;56.90
28087;DHT22;15392;48.912;8.380;2023-12-20T12:39:18;12.00;56.90
28087;DHT22;15392;48.912;8.380;2023-12-20T12:42:04;12.10;56.90
28087;DHT22;15392;48.912;8.380;2023-12-20T12:44:50;12.10;56.70
28087;DHT22;15392;48.912;8.380;2023-12-20T12:47:36;12.00;56.60
28087;DHT22;15392;48.912;8.380;2023-12-20T12:50:22;12.10;56.70
28087;DHT22;15392;48.912;8.380;2023-12-20T12:53:09;12.10;56.70
28087;DHT22;15392;48.912;8.380;2023-12-20T12:55:55;12.10;56.90
28087;DHT22;15392;48.912;8.380;2023-12-20T12:58:41;12.00;57.70
28087;DHT22;15392;48.912;8.380;2023-12-20T13:01:28;12.00;57.20
28087;DHT22;15392;48.912;8.380;2023-12-20T13:04:14;12.00;57.10
28087;DHT22;15392;48.912;8.380;2023-12-20T13:07:00;12.00;57.10
28087;DHT22;15392;48.912;8.380;2023-12-20T13:09:46;11.90;57.00
28087;DHT22;15392;48.912;8.380;2023-12-20T13:12:32;11.90;56.70
28087;DHT22;15392;48.912;8.380;2023-12-20T13:15:18;11.90;57.00
28087;DHT22;15392;48.912;8.380;2023-12-20T13:18:05;11.90;57.20
28087;DHT22;15392;48.912;8.380;2023-12-20T13:20:52;11.90;57.00
28087;DHT22;15392;48.912;8.380;2023-12-20T13:23:38;11.90;57.70
28087;DHT22;15392;48.912;8.380;2023-12-20T13:26:24;11.90;57.10
28087;DHT22;15392;48.912;8.380;2023-12-20T13:29:10;11.80;57.00
28087;DHT22;15392;48.912;8.380;2023-12-20T13:31:57;11.80;57.10
28087;DHT22;15392;48.912;8.380;2023-12-20T13:34:43;11.80;57.00
28087;DHT22;15392;48.912;8.380;2023-12-20T13:37:29;11.90;56.80
28087;DHT22;15392;48.912;8.380;2023-12-20T13:40:16;11.80;56.90
28087;DHT22;15392;48.912;8.380;2023-12-20T13:43:02;11.80;56.90
28087;DHT22;15392;48.912;8.380;2023-12-20T13:45:48;11.80;57.00
28087;DHT22;15392;48.912;8.380;2023-12-20T13:48:35;11.80;56.50
28087;DHT22;15392;48.912;8.380;2023-12-20T13:51:21;11.80;56.50
28087;DHT22;15392;48.912;8.380;2023-12-20T13:54:07;11.80;56.50
28087;DHT22;15392;48.912;8.380;2023-12-20T13:56:53;11.80;56.80
28087;DHT22;15392;48.912;8.380;2023-12-20T13:59:39;11.80;56.70
28087;DHT22;15392;48.912;8.380;2023-12-20T14:02:25;11.80;56.70
28087;DHT22;15392;48.912;8.380;2023-12-20T14:05:12;11.80;56.50
28087;DHT22;15392;48.912;8.380;2023-12-20T14:08:00;11.80;56.70
28087;DHT22;15392;48.912;8.380;2023-12-20T14:10:46;11.80;56.50
28087;DHT22;15392;48.912;8.380;2023-12-20T14:13:32;11.80;56.70
28087;DHT22;15392;48.912;8.380;2023-12-20T14:16:18;11.80;56.70
28087;DHT22;15392;48.912;8.380;2023-12-20T14:19:04;11.80;56.40
28087;DHT22;15392;48.912;8.380;2023-12-20T14:21:53;11.80;56.50
28087;DHT22;15392;48.912;8.380;2023-12-20T14:24:39;11.80;56.60
28087;DHT22;15392;48.912;8.380;2023-12-20T14:27:25;11.80;56.50
28087;DHT22;15392;48.912;8.380;2023-12-20T14:30:13;11.80;56.60
28087;DHT22;15392;48.912;8.380;2023-12-20T14:33:00;11.80;56.80
28087;DHT22;15392;48.912;8.380;2023-12-20T14:35:46;11.80;56.70
28087;DHT22;15392;48.912;8.380;2023-12-20T14:38:32;11.80;56.70
28087;DHT22;15392;48.912;8.380;2023-12-20T14:41:18;11.70;56.90
28087;DHT22;15392;48.912;8.380;2023-12-20T14:44:04;11.70;57.40
28087;DHT22;15392;48.912;8.380;2023-12-20T14:46:51;11.70;57.50
28087;DHT22;15392;48.912;8.380;2023-12-20T14:49:37;11.70;57.60
28087;DHT22;15392;48.912;8.380;2023-12-20T14:52:23;11.70;57.60
28087;DHT22;15392;48.912;8.380;2023-12-20T14:55:09;11.70;57.60
28087;DHT22;15392;48.912;8.380;2023-12-20T14:57:55;11.70;57.60
28087;DHT22;15392;48.912;8.380;2023-12-20T15:00:41;11.70;57.70
28087;DHT22;15392;48.912;8.380;2023-12-20T15:03:28;11.70;57.60
28087;DHT22;15392;48.912;8.380;2023-12-20T15:06:15;11.70;57.60
28087;DHT22;15392;48.912;8.380;2023-12-20T15:09:02;11.70;57.40
28087;DHT22;15392;48.912;8.380;2023-12-20T15:11:50;11.60;57.20
28087;DHT22;15392;48.912;8.380;2023-12-20T15:14:36;11.70;57.20
28087;DHT22;15392;48.912;8.380;2023-12-20T15:17:23;11.70;57.40
28087;DHT22;15392;48.912;8.380;2023-12-20T15:20:11;11.60;57.10
28087;DHT22;15392;48.912;8.380;2023-12-20T15:22:57;11.60;57.20
28087;DHT22;15392;48.912;8.380;2023-12-20T15:25:50;11.60;56.80
28087;DHT22;15392;48.912;8.380;2023-12-20T15:28:36;11.60;57.00
28087;DHT22;15392;48.912;8.380;2023-12-20T15:31:22;11.60;57.00
28087;DHT22;15392;48.912;8.380;2023-12-20T15:34:12;11.50;57.00
28087;DHT22;15392;48.912;8.380;2023-12-20T15:36:59;11.50;56.80
28087;DHT22;15392;48.912;8.380;2023-12-20T15:39:45;11.50;57.00
28087;DHT22;15392;48.912;8.380;2023-12-20T15:42:31;11.50;57.10
28087;DHT22;15392;48.912;8.380;2023-12-20T15:45:18;11.50;57.00
28087;DHT22;15392;48.912;8.380;2023-12-20T15:48:04;11.50;57.00
28087;DHT22;15392;48.912;8.380;2023-12-20T15:50:50;11.50;57.00
28087;DHT22;15392;48.912;8.380;2023-12-20T15:53:36;11.40;57.00
28087;DHT22;15392;48.912;8.380;2023-12-20T15:56:23;11.50;57.10
28087;DHT22;15392;48.912;8.380;2023-12-20T15:59:09;11.40;57.00
28087;DHT22;15392;48.912;8.380;2023-12-20T16:01:55;11.40;57.10
28087;DHT22;15392;48.912;8.380;2023-12-20T16:04:41;11.40;57.20
28087;DHT22;15392;48.912;8.380;2023-12-20T16:07:27;11.40;57.10
28087;DHT22;15392;48.912;8.380;2023-12-20T16:10:13;11.40;57.10
28087;DHT22;15392;48.912;8.380;2023-12-20T16:12:59;11.40;57.00
28087;DHT22;15392;48.912;8.380;2023-12-20T16:15:45;11.40;57.00
28087;DHT22;15392;48.912;8.380;2023-12-20T16:18:31;11.40;57.10
28087;DHT22;15392;48.912;8.380;2023-12-20T16:21:18;11.40;56.90
28087;DHT22;15392;48.912;8.380;2023-12-20T16:24:04;11.30;57.00
28087;DHT22;15392;48.912;8.380;2023-12-20T16:26:51;11.30;57.00
28087;DHT22;15392;48.912;8.380;2023-12-20T16:29:37;11.30;57.00
28087;DHT22;15392;48.912;8.380;2023-12-20T16:32:23;11.30;57.00
28087;DHT22;15392;48.912;8.380;2023-12-20T16:35:09;11.30;57.00
28087;DHT22;15392;48.912;8.380;2023-12-20T16:37:55;11.30;57.20
28087;DHT22;15392;48.912;8.380;2023-12-20T16:40:42;11.30;57.30
28087;DHT22;15392;48.912;8.380;2023-12-20T16:43:29;11.30;57.20
28087;DHT22;15392;48.912;8.380;2023-12-20T16:46:16;11.30;57.20
28087;DHT22;15392;48.912;8.380;2023-12-20T16:49:02;11.30;57.30
28087;DHT22;15392;48.912;8.380;2023-12-20T16:51:48;11.30;57.30
28087;DHT22;15392;48.912;8.380;2023-12-20T16:54:34;11.30;57.20
28087;DHT22;15392;48.912;8.380;2023-12-20T16:57:20;11.30;56.90
28087;DHT22;15392;48.912;8.380;2023-12-20T17:00:07;11.30;57.10
28087;DHT22;15392;48.912;8.380;2023-12-20T17:02:53;11.30;57.00
28087;DHT22;15392;48.912;8.380;2023-12-20T17:05:39;11.30;57.20
28087;DHT22;15392;48.912;8.380;2023-12-20T17:08:25;11.30;57.20
28087;DHT22;15392;48.912;8.380;2023-12-20T17:11:11;11.30;57.10
28087;DHT22;15392;48.912;8.380;2023-12-20T17:13:57;11.30;56.90
28087;DHT22;15392;48.912;8.380;2023-12-20T17:16:44;11.30;56.80
28087;DHT22;15392;48.912;8.380;2023-12-20T17:19:30;11.30;56.80
28087;DHT22;15392;48.912;8.380;2023-12-20T17:22:17;11.30;56.90
28087;DHT22;15392;48.912;8.380;2023-12-20T17:25:03;11.30;56.80
28087;DHT22;15392;48.912;8.380;2023-12-20T17:27:50;11.40;56.90
28087;DHT22;15392;48.912;8.380;2023-12-20T17:30:36;11.40;56.90
28087;DHT22;15392;48.912;8.380;2023-12-20T17:33:22;11.40;56.70
28087;DHT22;15392;48.912;8.380;2023-12-20T17:36:08;11.40;56.70
28087;DHT22;15392;48.912;8.380;2023-12-20T17:38:56;11.40;56.90